Time;durP1;ratioP1;P1;durP2;ratioP2;P2;SDS_P1;SDS_P2;PMS_P1;PMS_P2;Temp;Humidity;BMP_temperature;BMP_pressure;BME280_temperature;BME280_humidity;BME280_pressure;Samples;Min_cycle;Max_cycle;Signal;HPM_P1;HPM_P2
2023/01/10 00:02:04;;;;;;;;;;;;;;;-19.63;69.50;101827.09;4965125;28;19937;-64
2023/01/10 00:04:32;;;;;;;;;;;;;;;-19.63;69.48;101827.09;4948230;28;19930;-64
2023/01/10 00:06:57;;;;;;;;;;;;;;;-19.83;69.91;101797.06;4967976;28;19930;-64
2023/01/10 00:09:23;;;;;;;;;;;;;;;-19.60;69.70;101820.94;4966689;28;20340;-63
2023/01/10 00:14:34;;;;;;;;;;;;;;;-19.45;69.48;101823.25;4983917;28;19930;-64
2023/01/10 00:16:59;;;;;;;;;;;;;;;-19.44;69.65;101813.69;4970724;28;19984;-64
2023/01/10 00:19:25;;;;;;;;;;;;;;;-19.44;69.32;101805.88;4963704;28;19962;-63
2023/01/10 00:21:53;;;;;;;;;;;;;;;-19.42;69.37;101806.69;4947857;28;19930;-65
2023/01/10 00:24:19;;;;;;;;;;;;;;;-19.39;69.74;101817.03;4947474;28;20353;-64
2023/01/10 00:26:50;;;;;;;;;;;;;;;-19.35;69.49;101810.91;4946941;29;20001;-65
2023/01/10 00:29:17;;;;;;;;;;;;;;;-19.33;69.64;101803.91;4946820;28;19930;-64
2023/01/10 00:31:42;;;;;;;;;;;;;;;-19.29;69.86;101804.66;4966184;28;20001;-60
2023/01/10 00:34:08;;;;;;;;;;;;;;;-19.30;69.93;101809.03;4964310;28;20406;-59
2023/01/10 00:36:34;;;;;;;;;;;;;;;-19.32;69.77;101816.03;4966554;28;19940;-59
2023/01/10 00:39:01;;;;;;;;;;;;;;;-19.30;69.46;101808.16;4964098;28;19972;-61
2023/01/10 00:44:11;;;;;;;;;;;;;;;-19.32;69.72;101818.66;4968484;28;19937;-64
2023/01/10 00:46:37;;;;;;;;;;;;;;;-19.28;69.48;101799.44;4965782;28;19930;-60
2023/01/10 00:49:07;;;;;;;;;;;;;;;-19.20;69.56;101801.00;4964936;28;20032;-58
2023/01/10 00:51:32;;;;;;;;;;;;;;;-19.17;69.40;101795.75;4964202;28;20068;-58
2023/01/10 00:53:58;;;;;;;;;;;;;;;-19.18;68.95;101789.66;4968065;28;20021;-64
2023/01/10 00:56:25;;;;;;;;;;;;;;;-19.20;68.83;101795.78;4948590;28;19941;-64
2023/01/10 00:58:51;;;;;;;;;;;;;;;-19.22;69.24;101802.78;4967720;28;20394;-64
2023/01/10 01:01:17;;;;;;;;;;;;;;;-19.25;69.19;101785.47;4967765;28;19961;-65
2023/01/10 01:03:42;;;;;;;;;;;;;;;-19.29;68.89;101783.81;4967439;28;19992;-64
2023/01/10 01:06:08;;;;;;;;;;;;;;;-19.27;69.40;101788.09;4967115;28;19939;-64
2023/01/10 01:08:34;;;;;;;;;;;;;;;-19.28;69.11;101783.78;4963795;28;19957;-64
2023/01/10 01:11:00;;;;;;;;;;;;;;;-19.22;69.26;101784.53;4963856;28;19988;-65
2023/01/10 01:13:27;;;;;;;;;;;;;;;-19.17;69.81;101772.25;4968526;28;19937;-65
2023/01/10 01:15:56;;;;;;;;;;;;;;;-19.09;69.54;101762.50;4965613;28;19930;-64
2023/01/10 01:18:22;;;;;;;;;;;;;;;-19.07;69.64;101772.91;4964000;28;19936;-64
2023/01/10 01:20:51;;;;;;;;;;;;;;;-19.02;69.74;101764.09;4965536;28;19930;-64
2023/01/10 01:23:17;;;;;;;;;;;;;;;-18.98;69.77;101762.22;4964892;28;19969;-68
2023/01/10 01:25:43;;;;;;;;;;;;;;;-18.87;69.88;101756.75;4968939;28;19961;-64
2023/01/10 01:28:09;;;;;;;;;;;;;;;-18.84;69.65;101757.53;4966214;28;20067;-64
2023/01/10 01:30:36;;;;;;;;;;;;;;;-18.82;69.93;101745.28;4964649;28;20044;-65
2023/01/10 01:33:02;;;;;;;;;;;;;;;-18.82;69.44;101750.50;4965689;28;19930;-64
2023/01/10 01:35:28;;;;;;;;;;;;;;;-18.86;69.66;101730.63;4967599;28;20432;-63
2023/01/10 01:37:54;;;;;;;;;;;;;;;-18.88;69.47;101748.06;4964563;28;19930;-66
2023/01/10 01:40:20;;;;;;;;;;;;;;;-18.91;69.17;101752.50;4965338;28;19930;-64
2023/01/10 01:42:47;;;;;;;;;;;;;;;-18.88;69.18;101740.22;4982649;28;20360;-65
2023/01/10 01:45:33;;;;;;;;;;;;;;;-18.85;69.24;101747.97;4966594;28;20040;-65
2023/01/10 01:48:05;;;;;;;;;;;;;;;-18.81;69.22;101743.56;4952898;28;19958;-65
2023/01/10 01:50:33;;;;;;;;;;;;;;;-18.82;69.12;101747.91;4965022;28;19930;-65
2023/01/10 01:53:01;;;;;;;;;;;;;;;-18.78;69.29;101746.09;4965037;28;19930;-64
2023/01/10 01:55:28;;;;;;;;;;;;;;;-18.79;68.98;101760.03;4965742;28;19930;-58
2023/01/10 01:57:55;;;;;;;;;;;;;;;-18.79;69.19;101753.97;4963694;28;20461;-62
2023/01/10 02:00:21;;;;;;;;;;;;;;;-18.74;69.28;101758.16;4962582;28;19986;-57
2023/01/10 02:02:49;;;;;;;;;;;;;;;-18.73;68.99;101753.81;4952760;28;19930;-64
2023/01/10 02:05:17;;;;;;;;;;;;;;;-18.76;69.13;101759.94;4965340;28;20054;-65
2023/01/10 02:07:45;;;;;;;;;;;;;;;-18.66;69.09;101764.97;4964724;28;19957;-64
2023/01/10 02:10:14;;;;;;;;;;;;;;;-18.58;69.73;101770.81;4966717;28;19937;-65
2023/01/10 02:12:40;;;;;;;;;;;;;;;-18.57;69.36;101767.34;4979827;28;20365;-64
2023/01/10 02:15:06;;;;;;;;;;;;;;;-18.57;69.57;101764.75;4963692;28;20373;-64
2023/01/10 02:17:32;;;;;;;;;;;;;;;-18.56;69.84;101772.50;4963409;28;20384;-64
2023/01/10 02:20:02;;;;;;;;;;;;;;;-18.61;70.00;101761.34;4963702;28;19938;-64
2023/01/10 02:22:47;;;;;;;;;;;;;;;-18.63;69.88;101767.47;4961901;28;19930;-64
2023/01/10 02:25:28;;;;;;;;;;;;;;;-18.61;69.97;101771.78;4961856;28;19969;-64
2023/01/10 02:28:12;;;;;;;;;;;;;;;-18.56;69.45;101772.50;4951327;28;19937;-64
2023/01/10 02:30:46;;;;;;;;;;;;;;;-18.64;70.23;101763.16;4946144;28;20035;-64
2023/01/10 02:33:19;;;;;;;;;;;;;;;-18.60;69.82;101759.56;4964296;28;20005;-64
2023/01/10 02:35:50;;;;;;;;;;;;;;;-18.52;70.34;101755.03;4947539;28;19937;-64
2023/01/10 02:38:27;;;;;;;;;;;;;;;-18.44;70.18;101760.06;4966364;28;19930;-64
2023/01/10 02:41:00;;;;;;;;;;;;;;;-18.43;70.42;101761.78;4965017;28;19937;-64
2023/01/10 02:43:29;;;;;;;;;;;;;;;-18.38;70.54;101766.88;4961858;28;19962;-67
2023/01/10 02:45:56;;;;;;;;;;;;;;;-18.31;70.88;101750.13;4962588;28;19934;-64
2023/01/10 02:48:23;;;;;;;;;;;;;;;-18.31;70.21;101757.97;4946086;29;20397;-64
2023/01/10 02:50:52;;;;;;;;;;;;;;;-18.30;70.07;101760.56;4949583;28;19938;-64
2023/01/10 02:53:20;;;;;;;;;;;;;;;-18.30;70.44;101760.56;4963001;28;20032;-64
2023/01/10 02:55:56;;;;;;;;;;;;;;;-18.29;70.08;101770.09;4950822;28;19934;-64
2023/01/10 02:58:28;;;;;;;;;;;;;;;-18.28;70.57;101778.78;4966669;28;19930;-60
2023/01/10 03:00:57;;;;;;;;;;;;;;;-18.31;70.51;101771.03;4968326;28;19984;-58
2023/01/10 03:03:32;;;;;;;;;;;;;;;-18.22;70.80;101764.72;4968827;28;20028;-57
2023/01/10 03:06:06;;;;;;;;;;;;;;;-18.13;70.56;101782.75;4968414;28;19937;-59
2023/01/10 03:08:35;;;;;;;;;;;;;;;-18.09;70.67;101762.66;4968686;28;19937;-59
2023/01/10 03:11:02;;;;;;;;;;;;;;;-18.05;70.68;101746.81;4968276;28;19973;-58
2023/01/10 03:13:30;;;;;;;;;;;;;;;-18.06;70.67;101762.56;4950927;28;20386;-59
2023/01/10 03:15:56;;;;;;;;;;;;;;;-18.03;70.86;101762.47;4949129;28;19934;-59
2023/01/10 03:18:23;;;;;;;;;;;;;;;-18.01;70.25;101765.84;4968274;28;19940;-58
2023/01/10 03:20:51;;;;;;;;;;;;;;;-18.04;70.30;101768.59;4970046;28;19945;-59
2023/01/10 03:23:17;;;;;;;;;;;;;;;-18.05;70.50;101775.56;4967053;28;19934;-59
2023/01/10 03:25:45;;;;;;;;;;;;;;;-18.01;70.57;101769.34;4966685;28;19930;-58
2023/01/10 03:28:13;;;;;;;;;;;;;;;-18.01;70.68;101771.97;4948281;28;20317;-59
2023/01/10 03:30:41;;;;;;;;;;;;;;;-17.97;70.44;101778.81;4965784;28;19930;-58
2023/01/10 03:33:08;;;;;;;;;;;;;;;-17.93;70.68;101779.59;4968856;28;19984;-58
2023/01/10 03:35:39;;;;;;;;;;;;;;;-17.96;70.31;101777.03;4968049;28;19930;-61
2023/01/10 03:38:07;;;;;;;;;;;;;;;-18.01;70.41;101774.56;4968828;28;19949;-64
2023/01/10 03:40:38;;;;;;;;;;;;;;;-17.99;70.79;101782.34;4966229;28;19970;-64
2023/01/10 03:45:57;;;;;;;;;;;;;;;-17.93;70.22;101776.09;4971706;28;19930;-58
2023/01/10 03:48:26;;;;;;;;;;;;;;;-17.94;70.26;101769.16;4965007;28;20020;-60
2023/01/10 03:50:52;;;;;;;;;;;;;;;-17.93;70.69;101770.88;4950505;28;19938;-64
2023/01/10 03:53:19;;;;;;;;;;;;;;;-17.89;70.90;101775.09;4965791;28;19930;-64
2023/01/10 03:55:47;;;;;;;;;;;;;;;-17.86;71.18;101775.88;4966954;28;19938;-64
2023/01/10 03:58:13;;;;;;;;;;;;;;;-17.79;70.76;101766.13;4964284;28;20182;-64
2023/01/10 04:00:40;;;;;;;;;;;;;;;-17.70;70.84;101765.00;4950986;28;20362;-59
2023/01/10 04:03:08;;;;;;;;;;;;;;;-17.63;70.82;101769.16;4980054;28;19965;-59
2023/01/10 04:05:34;;;;;;;;;;;;;;;-17.55;70.91;101759.31;4980936;28;20028;-60
2023/01/10 04:08:00;;;;;;;;;;;;;;;-17.56;70.34;101752.38;4965610;28;20037;-57
2023/01/10 04:10:28;;;;;;;;;;;;;;;-17.57;70.10;101758.53;4967628;28;20341;-60
2023/01/10 04:12:54;;;;;;;;;;;;;;;-17.57;70.31;101761.13;4966664;28;19991;-59
2023/01/10 04:15:20;;;;;;;;;;;;;;;-17.49;70.39;101767.88;4967070;28;20405;-58
2023/01/10 04:17:47;;;;;;;;;;;;;;;-17.46;69.76;101754.75;4967707;28;20467;-59
2023/01/10 04:20:13;;;;;;;;;;;;;;;-17.63;70.70;101748.25;4966165;28;20321;-59
2023/01/10 04:22:39;;;;;;;;;;;;;;;-17.43;71.05;101778.19;4965587;28;20432;-59
2023/01/10 04:25:05;;;;;;;;;;;;;;;-17.42;70.59;101772.03;4969209;28;19992;-59
2023/01/10 04:27:32;;;;;;;;;;;;;;;-17.42;70.40;101777.28;4966791;28;19937;-57
2023/01/10 04:29:58;;;;;;;;;;;;;;;-17.38;70.71;101784.13;4966492;28;19945;-60
2023/01/10 04:32:23;;;;;;;;;;;;;;;-17.30;70.26;101796.97;4969262;28;19930;-60
2023/01/10 04:34:49;;;;;;;;;;;;;;;-17.32;70.22;101790.94;4979002;28;20328;-58
2023/01/10 04:37:15;;;;;;;;;;;;;;;-17.33;70.28;101794.47;4975472;28;20320;-65
2023/01/10 04:39:41;;;;;;;;;;;;;;;-17.43;69.97;101791.25;4970469;28;20296;-65
2023/01/10 04:42:07;;;;;;;;;;;;;;;-17.46;70.35;101799.19;4971536;28;19929;-64
2023/01/10 04:44:34;;;;;;;;;;;;;;;-17.44;70.23;101802.63;4974580;28;19930;-64
2023/01/10 04:47:00;;;;;;;;;;;;;;;-17.48;70.81;101812.31;4971023;28;20032;-64
2023/01/10 04:49:26;;;;;;;;;;;;;;;-17.50;70.54;101798.44;4649545;28;9999855;-65
2023/01/10 04:51:53;;;;;;;;;;;;;;;-17.49;70.87;101805.38;4979231;28;20025;-66
2023/01/10 04:54:20;;;;;;;;;;;;;;;-17.54;70.66;101805.50;4962931;28;19930;-64
2023/01/10 04:56:45;;;;;;;;;;;;;;;-17.45;70.68;101814.84;4977082;28;19937;-64
2023/01/10 04:59:11;;;;;;;;;;;;;;;-17.47;70.69;101813.19;4972806;28;19930;-65
2023/01/10 05:01:38;;;;;;;;;;;;;;;-17.54;70.88;101810.72;4643395;28;10000365;-65
2023/01/10 05:04:04;;;;;;;;;;;;;;;-17.49;71.22;101802.75;4969303;28;20037;-65
2023/01/10 05:06:30;;;;;;;;;;;;;;;-17.45;71.00;101808.75;4962034;28;20060;-65
2023/01/10 05:08:56;;;;;;;;;;;;;;;-17.41;71.13;101798.13;4965636;28;19934;-65
2023/01/10 05:11:22;;;;;;;;;;;;;;;-17.35;70.98;101814.59;4965847;28;20152;-65
2023/01/10 05:13:48;;;;;;;;;;;;;;;-17.34;70.71;101783.13;4971621;28;19969;-64
2023/01/10 05:16:14;;;;;;;;;;;;;;;-17.30;71.00;101802.22;4964471;28;19937;-65
2023/01/10 05:18:41;;;;;;;;;;;;;;;-17.22;70.72;101810.69;4984985;28;19930;-65
2023/01/10 05:21:08;;;;;;;;;;;;;;;-17.16;70.67;101807.06;4975328;28;19934;-65
2023/01/10 05:23:34;;;;;;;;;;;;;;;-17.14;70.71;101813.09;4972504;28;19969;-65
2023/01/10 05:26:04;;;;;;;;;;;;;;;-17.07;70.79;101813.75;4969060;28;20436;-65
2023/01/10 05:28:30;;;;;;;;;;;;;;;-17.05;70.77;101814.56;4961030;28;19980;-64
2023/01/10 05:30:56;;;;;;;;;;;;;;;-17.01;70.94;101824.91;4971726;28;19934;-65
2023/01/10 05:33:21;;;;;;;;;;;;;;;-16.95;70.75;101834.28;4970947;28;19953;-65
2023/01/10 05:35:49;;;;;;;;;;;;;;;-16.88;70.82;101840.19;4994795;28;19936;-64
2023/01/10 05:38:14;;;;;;;;;;;;;;;-16.95;70.66;101834.28;4976715;28;19930;-65
2023/01/10 05:40:40;;;;;;;;;;;;;;;-16.93;71.05;101835.13;4992143;28;19930;-65
2023/01/10 05:43:06;;;;;;;;;;;;;;;-16.87;71.20;101836.66;4976351;28;19949;-65
2023/01/10 05:45:32;;;;;;;;;;;;;;;-16.83;71.08;101847.00;4972151;28;19941;-59
2023/01/10 05:47:57;;;;;;;;;;;;;;;-16.81;70.99;101852.19;4969402;28;20029;-57
2023/01/10 05:50:23;;;;;;;;;;;;;;;-16.81;70.77;101860.06;4984862;28;19937;-59
2023/01/10 05:52:50;;;;;;;;;;;;;;;-16.83;71.16;101861.88;4951154;28;19937;-66
2023/01/10 05:55:16;;;;;;;;;;;;;;;-16.77;70.82;101861.66;4981590;28;19930;-61
2023/01/10 05:57:42;;;;;;;;;;;;;;;-16.72;71.00;101862.38;4952456;28;19937;-60
2023/01/10 06:00:09;;;;;;;;;;;;;;;-16.66;70.73;101874.41;4983441;28;20437;-58
2023/01/10 06:02:37;;;;;;;;;;;;;;;-16.61;70.53;101866.44;4982836;28;20032;-60
2023/01/10 06:05:03;;;;;;;;;;;;;;;-16.62;70.44;101883.91;4967781;28;20049;-60
2023/01/10 06:07:31;;;;;;;;;;;;;;;-16.65;70.21;101885.75;4964635;28;20452;-59
2023/01/10 06:09:58;;;;;;;;;;;;;;;-16.66;70.36;101908.47;4965743;28;20225;-59
2023/01/10 06:12:23;;;;;;;;;;;;;;;-16.59;70.25;101911.75;4980215;28;19930;-58
2023/01/10 06:14:49;;;;;;;;;;;;;;;-16.63;70.60;101904.91;4966737;28;19984;-60
2023/01/10 06:17:15;;;;;;;;;;;;;;;-16.56;70.50;101894.19;4966719;28;19997;-61
2023/01/10 06:19:41;;;;;;;;;;;;;;;-16.46;70.62;101905.25;4965801;28;19953;-59
2023/01/10 06:22:08;;;;;;;;;;;;;;;-16.32;69.73;101890.84;4999552;28;20154;-65
2023/01/10 06:24:34;;;;;;;;;;;;;;;-16.27;70.10;101895.03;4965080;28;20029;-65
2023/01/10 06:27:01;;;;;;;;;;;;;;;-16.22;69.65;101887.03;4968865;28;19930;-57
2023/01/10 06:29:27;;;;;;;;;;;;;;;-16.27;69.80;101899.41;4948263;28;20320;-60
2023/01/10 06:31:53;;;;;;;;;;;;;;;-16.29;69.80;101891.63;4971841;28;19930;-62
2023/01/10 06:34:18;;;;;;;;;;;;;;;-16.29;69.85;101882.88;4972612;28;19953;-60
2023/01/10 06:36:44;;;;;;;;;;;;;;;-16.28;69.98;101895.94;4973257;28;19937;-57
2023/01/10 06:39:10;;;;;;;;;;;;;;;-16.24;70.23;101899.31;4973450;28;19953;-60
2023/01/10 06:41:36;;;;;;;;;;;;;;;-16.19;70.63;101896.53;4987612;28;19938;-60
2023/01/10 06:44:03;;;;;;;;;;;;;;;-16.20;70.55;101906.19;4969738;28;19999;-60
2023/01/10 06:46:29;;;;;;;;;;;;;;;-16.15;70.70;101904.25;4970437;28;20029;-60
2023/01/10 06:48:55;;;;;;;;;;;;;;;-16.07;70.51;101909.25;4955099;28;20040;-60
2023/01/10 06:51:20;;;;;;;;;;;;;;;-16.03;70.50;101912.63;4972898;28;19930;-60
2023/01/10 06:53:46;;;;;;;;;;;;;;;-15.92;70.66;101905.28;4971380;28;20009;-61
2023/01/10 06:56:12;;;;;;;;;;;;;;;-15.83;70.59;101914.56;4973120;28;19953;-61
2023/01/10 06:58:38;;;;;;;;;;;;;;;-15.78;70.50;101911.75;4972024;28;19936;-60
2023/01/10 07:01:06;;;;;;;;;;;;;;;-15.77;70.31;101908.22;4987747;28;19976;-60
2023/01/10 07:03:31;;;;;;;;;;;;;;;-15.73;70.43;101908.06;4985574;28;19989;-59
2023/01/10 07:05:59;;;;;;;;;;;;;;;-15.72;70.53;101895.84;4973179;28;19957;-61
2023/01/10 07:08:25;;;;;;;;;;;;;;;-15.72;70.79;101904.53;4972497;28;19993;-59
2023/01/10 07:10:50;;;;;;;;;;;;;;;-15.76;70.45;101894.22;4971266;28;19930;-60
2023/01/10 07:13:16;;;;;;;;;;;;;;;-15.82;70.78;101901.38;4972294;28;20409;-60
2023/01/10 07:15:41;;;;;;;;;;;;;;;-15.80;71.00;101903.09;4972289;28;19993;-60
2023/01/10 07:18:09;;;;;;;;;;;;;;;-15.70;71.20;101899.25;4971099;28;20285;-60
2023/01/10 07:20:34;;;;;;;;;;;;;;;-15.64;70.93;101912.16;4971777;28;20391;-60
2023/01/10 07:23:00;;;;;;;;;;;;;;;-15.65;70.96;101897.31;4971435;28;20040;-60
2023/01/10 07:25:27;;;;;;;;;;;;;;;-15.55;71.01;101892.59;4986277;28;19930;-60
2023/01/10 07:27:55;;;;;;;;;;;;;;;-15.45;70.78;101899.25;4954522;28;19930;-60
2023/01/10 07:30:22;;;;;;;;;;;;;;;-15.35;70.53;101902.41;4971241;28;20292;-60
2023/01/10 07:32:51;;;;;;;;;;;;;;;-15.25;70.24;101900.28;4971267;28;19930;-60
2023/01/10 07:35:19;;;;;;;;;;;;;;;-15.29;70.11;101909.19;4971097;28;20591;-60
2023/01/10 07:37:44;;;;;;;;;;;;;;;-15.30;70.17;101904.88;4971262;28;19941;-61
2023/01/10 07:40:10;;;;;;;;;;;;;;;-15.24;70.17;101917.75;4971671;28;19930;-63
2023/01/10 07:42:36;;;;;;;;;;;;;;;-15.15;69.90;101906.06;4952996;28;20369;-61
2023/01/10 07:45:02;;;;;;;;;;;;;;;-15.12;69.65;101911.22;4971030;28;19936;-60
2023/01/10 07:47:29;;;;;;;;;;;;;;;-15.08;69.72;101919.81;4971930;28;20432;-60
2023/01/10 07:49:55;;;;;;;;;;;;;;;-15.04;69.30;101910.94;4970637;28;19969;-60
2023/01/10 07:52:22;;;;;;;;;;;;;;;-15.04;69.45;101906.53;4970143;28;19930;-62
2023/01/10 07:54:47;;;;;;;;;;;;;;;-15.00;69.17;101921.25;4973931;28;19956;-62
2023/01/10 07:57:14;;;;;;;;;;;;;;;-14.96;68.91;101922.00;4971002;28;19936;-64
2023/01/10 07:59:40;;;;;;;;;;;;;;;-14.92;68.48;101928.00;4970935;28;20322;-60
2023/01/10 08:02:07;;;;;;;;;;;;;;;-14.95;67.76;101931.59;4972390;28;19934;-61
2023/01/10 08:04:33;;;;;;;;;;;;;;;-14.92;67.39;101941.97;4971166;28;19936;-61
2023/01/10 08:06:58;;;;;;;;;;;;;;;-14.95;67.48;101923.72;4972505;28;19933;-60
2023/01/10 08:09:25;;;;;;;;;;;;;;;-14.90;67.60;101934.06;4952252;28;19937;-60
2023/01/10 08:11:51;;;;;;;;;;;;;;;-14.83;67.44;101932.91;4952279;28;19934;-60
2023/01/10 08:14:17;;;;;;;;;;;;;;;-14.80;67.14;101924.94;4951681;28;19954;-65
2023/01/10 08:16:42;;;;;;;;;;;;;;;-14.75;66.93;101933.47;4968187;28;19930;-59
2023/01/10 08:19:11;;;;;;;;;;;;;;;-14.60;67.25;101933.78;4970253;28;20040;-57
2023/01/10 08:21:37;;;;;;;;;;;;;;;-14.42;66.83;101929.59;4970652;28;20014;-60
2023/01/10 08:24:02;;;;;;;;;;;;;;;-14.35;66.43;101931.06;4981968;28;20021;-60
2023/01/10 08:26:30;;;;;;;;;;;;;;;-14.40;66.10;101917.25;4983715;28;19930;-60
2023/01/10 08:28:55;;;;;;;;;;;;;;;-14.39;66.22;101925.06;4970568;28;19936;-61
2023/01/10 08:31:21;;;;;;;;;;;;;;;-14.34;66.04;101916.16;4970424;28;20396;-60
2023/01/10 08:33:47;;;;;;;;;;;;;;;-14.30;65.86;101930.88;4969678;28;19930;-60
2023/01/10 08:36:16;;;;;;;;;;;;;;;-14.24;65.54;101922.72;4970056;28;19930;-60
2023/01/10 08:38:42;;;;;;;;;;;;;;;-14.21;65.67;101919.97;4969834;28;19954;-60
2023/01/10 08:41:07;;;;;;;;;;;;;;;-14.13;65.45;101912.66;4971610;28;20316;-60
2023/01/10 08:43:35;;;;;;;;;;;;;;;-14.11;65.09;101909.97;4967258;28;20397;-60
2023/01/10 08:46:00;;;;;;;;;;;;;;;-14.19;64.93;101909.41;4970458;28;19930;-60
2023/01/10 08:48:26;;;;;;;;;;;;;;;-14.18;65.25;101913.75;4970122;28;19930;-61
2023/01/10 08:50:52;;;;;;;;;;;;;;;-14.01;65.05;101889.41;4968670;28;19961;-61
2023/01/10 08:53:17;;;;;;;;;;;;;;;-13.90;64.53;101921.34;4969618;28;19934;-60
2023/01/10 08:55:43;;;;;;;;;;;;;;;-13.81;64.41;101922.78;4968532;28;19930;-61
2023/01/10 08:58:10;;;;;;;;;;;;;;;-13.81;64.25;101917.50;4969837;28;19930;-60
2023/01/10 09:00:37;;;;;;;;;;;;;;;-13.67;64.16;101909.03;4968970;28;19930;-60
2023/01/10 09:03:04;;;;;;;;;;;;;;;-13.61;63.91;101910.53;4970176;28;19930;-60
2023/01/10 09:05:30;;;;;;;;;;;;;;;-13.64;63.38;101908.06;4952542;28;20035;-60
2023/01/10 09:07:57;;;;;;;;;;;;;;;-13.61;63.43;101914.00;4969820;28;20338;-61
2023/01/10 09:10:23;;;;;;;;;;;;;;;-13.54;63.23;101906.72;4964654;28;20013;-60
2023/01/10 09:12:54;;;;;;;;;;;;;;;-13.52;63.08;101922.44;4977614;28;19930;-59
2023/01/10 09:15:21;;;;;;;;;;;;;;;-13.58;62.68;101915.66;4970289;28;19945;-61
2023/01/10 09:17:51;;;;;;;;;;;;;;;-13.63;62.51;101905.34;4985218;28;20088;-61
2023/01/10 09:20:16;;;;;;;;;;;;;;;-13.71;62.40;101912.72;4969223;28;19985;-61
2023/01/10 09:22:42;;;;;;;;;;;;;;;-13.64;62.97;101915.94;4968962;28;19934;-61
2023/01/10 09:25:08;;;;;;;;;;;;;;;-13.53;62.49;101916.31;4969477;28;19937;-60
2023/01/10 09:27:34;;;;;;;;;;;;;;;-13.50;62.64;101926.75;4970272;28;20197;-59
2023/01/10 09:29:59;;;;;;;;;;;;;;;-13.48;62.35;101924.91;4958740;28;20343;-61
2023/01/10 09:32:25;;;;;;;;;;;;;;;-13.64;62.16;101901.00;4968936;28;19940;-60
2023/01/10 09:34:52;;;;;;;;;;;;;;;-13.49;62.47;101917.06;4965389;28;19937;-61
2023/01/10 09:37:18;;;;;;;;;;;;;;;-13.40;62.23;101921.91;4968233;28;20517;-60
2023/01/10 09:39:44;;;;;;;;;;;;;;;-13.30;62.33;101909.19;4970785;28;19930;-61
2023/01/10 09:42:18;;;;;;;;;;;;;;;-13.16;61.79;101905.91;4969673;28;19941;-59
2023/01/10 09:44:48;;;;;;;;;;;;;;;-13.06;61.08;101903.72;4984573;28;19934;-60
2023/01/10 09:47:19;;;;;;;;;;;;;;;-13.09;61.22;101899.47;4969740;28;19930;-61
2023/01/10 09:49:48;;;;;;;;;;;;;;;-13.02;61.31;101908.78;4969714;28;20298;-59
2023/01/10 09:52:20;;;;;;;;;;;;;;;-12.91;61.13;101897.75;4950681;28;20368;-60
2023/01/10 09:54:47;;;;;;;;;;;;;;;-12.90;60.69;101903.91;4969442;28;19938;-62
2023/01/10 09:57:14;;;;;;;;;;;;;;;-12.78;60.92;101891.94;4970410;28;19936;-60
2023/01/10 09:59:41;;;;;;;;;;;;;;;-12.83;60.64;101903.53;4967807;28;19957;-60
2023/01/10 10:02:15;;;;;;;;;;;;;;;-12.80;60.92;101901.69;4967636;28;19937;-60
2023/01/10 10:04:45;;;;;;;;;;;;;;;-12.84;60.46;101911.50;4966086;28;19930;-61
2023/01/10 10:07:13;;;;;;;;;;;;;;;-12.97;60.49;101911.22;4964544;28;19930;-60
2023/01/10 10:09:41;;;;;;;;;;;;;;;-13.02;60.98;101892.16;4952712;28;20432;-59
2023/01/10 10:12:13;;;;;;;;;;;;;;;-13.01;61.14;101886.78;4968900;28;19938;-60
2023/01/10 10:14:45;;;;;;;;;;;;;;;-13.10;61.33;101889.88;4962903;28;19930;-62
2023/01/10 10:17:16;;;;;;;;;;;;;;;-13.12;61.12;101895.19;4960453;28;20025;-59
2023/01/10 10:19:51;;;;;;;;;;;;;;;-13.11;61.43;101899.53;4965744;28;19970;-61
2023/01/10 10:22:21;;;;;;;;;;;;;;;-13.11;61.35;101894.25;4964359;28;20362;-59
2023/01/10 10:24:55;;;;;;;;;;;;;;;-13.08;61.73;101906.44;4946932;28;19942;-61
2023/01/10 10:27:22;;;;;;;;;;;;;;;-13.07;61.63;101894.97;4956904;28;19931;-61
2023/01/10 10:30:05;;;;;;;;;;;;;;;-13.07;61.56;101905.53;4966123;28;19937;-60
2023/01/10 10:32:40;;;;;;;;;;;;;;;-13.19;61.91;101899.00;4958620;28;19930;-61
2023/01/10 10:35:11;;;;;;;;;;;;;;;-13.21;62.04;101906.13;4972847;28;19934;-61
2023/01/10 10:37:39;;;;;;;;;;;;;;;-13.12;61.83;101900.47;4977505;28;19937;-60
2023/01/10 10:40:14;;;;;;;;;;;;;;;-13.01;61.79;101889.44;4960455;28;20032;-60
2023/01/10 10:42:41;;;;;;;;;;;;;;;-12.93;61.96;101901.41;4966643;28;20044;-60
2023/01/10 10:45:14;;;;;;;;;;;;;;;-12.89;61.40;101890.63;4957873;28;20369;-61
2023/01/10 10:47:41;;;;;;;;;;;;;;;-12.77;61.41;101893.63;4960704;28;19937;-61
2023/01/10 10:50:17;;;;;;;;;;;;;;;-12.73;61.24;101889.91;4966099;28;19934;-60
2023/01/10 10:52:44;;;;;;;;;;;;;;;-12.70;61.36;101880.09;4967219;28;20397;-61
2023/01/10 10:55:14;;;;;;;;;;;;;;;-12.69;61.40;101881.81;4967935;28;20049;-60
2023/01/10 10:57:40;;;;;;;;;;;;;;;-12.64;60.92;101881.59;4969469;28;19984;-60
2023/01/10 11:00:07;;;;;;;;;;;;;;;-12.64;60.92;101881.59;4970250;28;19930;-59
2023/01/10 11:02:39;;;;;;;;;;;;;;;-12.73;61.11;101887.28;4968346;28;19930;-62
2023/01/10 11:05:06;;;;;;;;;;;;;;;-12.68;61.15;101893.22;4964351;28;19934;-58
2023/01/10 11:07:33;;;;;;;;;;;;;;;-12.65;61.28;101898.34;4969254;28;19973;-61
2023/01/10 11:10:13;;;;;;;;;;;;;;;-12.61;61.49;101902.53;4970202;28;19930;-60
2023/01/10 11:12:46;;;;;;;;;;;;;;;-12.69;61.42;101897.63;4985446;28;20006;-60
2023/01/10 11:15:33;;;;;;;;;;;;;;;-12.74;61.68;101899.63;4972659;28;19930;-60
2023/01/10 11:18:02;;;;;;;;;;;;;;;-12.77;61.29;101912.94;4975316;28;19930;-59
2023/01/10 11:20:28;;;;;;;;;;;;;;;-12.83;61.77;101918.50;4974089;28;19930;-59
2023/01/10 11:22:54;;;;;;;;;;;;;;;-12.91;61.76;101907.47;4987391;28;19937;-60
2023/01/10 11:25:21;;;;;;;;;;;;;;;-12.91;62.21;101903.03;4973188;28;20290;-61
2023/01/10 11:27:50;;;;;;;;;;;;;;;-12.82;62.06;101904.38;4971167;28;19930;-60
2023/01/10 11:30:18;;;;;;;;;;;;;;;-12.75;62.30;101897.06;4972638;28;20396;-60
2023/01/10 11:32:48;;;;;;;;;;;;;;;-12.61;62.30;101901.69;4961818;28;19937;-61
2023/01/10 11:35:18;;;;;;;;;;;;;;;-12.61;61.57;101901.69;4985009;28;19933;-60
2023/01/10 11:37:56;;;;;;;;;;;;;;;-12.75;61.63;101895.28;4978516;28;19937;-60
2023/01/10 11:40:24;;;;;;;;;;;;;;;-12.78;62.17;101887.53;4976468;28;19972;-61
2023/01/10 11:42:53;;;;;;;;;;;;;;;-12.69;62.08;101894.16;4978933;28;20000;-60
2023/01/10 11:45:21;;;;;;;;;;;;;;;-12.63;62.53;101900.91;4974362;28;20072;-61
2023/01/10 11:47:48;;;;;;;;;;;;;;;-12.57;61.76;101900.63;4979784;28;19929;-60
2023/01/10 11:50:18;;;;;;;;;;;;;;;-12.55;62.21;101897.00;4992938;28;19934;-60
2023/01/10 11:52:45;;;;;;;;;;;;;;;-12.54;62.04;101900.47;4977635;28;20401;-59
2023/01/10 11:55:16;;;;;;;;;;;;;;;-12.50;62.18;101901.19;4990549;28;19952;-61
2023/01/10 11:57:42;;;;;;;;;;;;;;;-12.47;61.98;101916.84;4974903;28;19937;-60
2023/01/10 12:00:10;;;;;;;;;;;;;;;-12.44;62.27;101909.66;4994386;28;19930;-60
2023/01/10 12:02:40;;;;;;;;;;;;;;;-12.50;62.27;101907.28;4982316;28;19981;-60
2023/01/10 12:05:08;;;;;;;;;;;;;;;-12.44;62.13;101906.16;4993486;28;20004;-61
2023/01/10 12:07:48;;;;;;;;;;;;;;;-12.51;62.18;101908.22;4978691;28;20892;-60
2023/01/10 12:10:19;;;;;;;;;;;;;;;-12.48;62.44;101917.78;4975672;28;19940;-62
2023/01/10 12:12:51;;;;;;;;;;;;;;;-12.37;62.18;101919.91;4977597;28;19930;-61
2023/01/10 12:15:23;;;;;;;;;;;;;;;-12.31;61.91;101922.25;4976311;28;19988;-60
2023/01/10 12:17:49;;;;;;;;;;;;;;;-12.30;61.83;101926.59;4974909;28;20000;-61
2023/01/10 12:20:15;;;;;;;;;;;;;;;-12.22;61.80;101924.44;4977202;28;20362;-60
2023/01/10 12:22:41;;;;;;;;;;;;;;;-12.27;61.33;101908.81;4976157;28;19960;-59
2023/01/10 12:25:15;;;;;;;;;;;;;;;-12.36;61.51;101926.88;4973675;28;19930;-60
2023/01/10 12:27:43;;;;;;;;;;;;;;;-12.37;61.60;101923.41;4990354;28;19934;-61
2023/01/10 12:30:11;;;;;;;;;;;;;;;-12.32;61.57;101924.03;4976694;28;19964;-61
2023/01/10 12:32:43;;;;;;;;;;;;;;;-12.38;61.44;101918.19;4991787;28;19937;-60
2023/01/10 12:35:13;;;;;;;;;;;;;;;-12.47;61.60;101928.28;4977128;28;19930;-60
2023/01/10 12:37:41;;;;;;;;;;;;;;;-12.55;61.52;101925.13;4974621;28;19977;-60